Time;durP1;ratioP1;P1;durP2;ratioP2;P2;SDS_P1;SDS_P2;PMS_P1;PMS_P2;Temp;Humidity;BMP_temperature;BMP_pressure;BME280_temperature;BME280_humidity;BME280_pressure;Samples;Min_cycle;Max_cycle;Signal;HPM_P1;HPM_P2
2024/03/27 00:02:16;;;;;;;3.53;2.57;;;;;;;;;;6102780;23;20447;-87
2024/03/27 00:04:49;;;;;;;2.40;2.20;;;;;;;;;;6101960;23;20461;-85
2024/03/27 00:07:23;;;;;;;3.20;2.27;;;;;;;;;;6098143;23;20415;-86
2024/03/27 00:10:07;;;;;;;;;;;;;;;;;;;;;
2024/03/27 00:12:43;;;;;;;2.70;2.17;;;;;;;;;;6125606;23;20418;-87
2024/03/27 00:15:15;;;;;;;2.53;2.33;;;;;;;;;;6126122;23;20418;-87
2024/03/27 00:18:04;;;;;;;2.60;2.07;;;;;;;;;;6137219;23;20403;-85
2024/03/27 00:20:43;;;;;;;2.10;2.00;;;;;;;;;;6101095;23;20407;-86
2024/03/27 00:23:25;;;;;;;2.27;2.10;;;;;;;;;;6124817;23;20399;-85
2024/03/27 00:26:14;;;;;;;2.90;2.70;;;;;;;;;;6100458;23;20387;-85
2024/03/27 00:28:49;;;;;;;3.23;2.33;;;;;;;;;;6100446;23;20410;-85
2024/03/27 00:31:24;;;;;;;2.57;2.37;;;;;;;;;;6104342;23;20422;-85
2024/03/27 00:33:51;;;;;;;3.43;2.53;;;;;;;;;;6100756;23;20407;-87
2024/03/27 00:36:26;;;;;;;3.03;2.57;;;;;;;;;;6148836;23;20405;-86
2024/03/27 00:38:58;;;;;;;4.17;3.00;;;;;;;;;;6124640;23;20657;-87
2024/03/27 00:41:28;;;;;;;3.50;3.20;;;;;;;;;;6100425;23;21017;-86
2024/03/27 00:44:02;;;;;;;2.67;2.47;;;;;;;;;;6100323;23;20735;-85
2024/03/27 00:49:26;;;;;;;4.03;2.53;;;;;;;;;;6125388;23;20423;-84
2024/03/27 00:52:01;;;;;;;6.60;3.03;;;;;;;;;;6122773;23;20410;-86
2024/03/27 00:54:41;;;;;;;3.87;2.70;;;;;;;;;;6121800;23;20438;-86
2024/03/27 00:57:55;;;;;;;3.10;2.40;;;;;;;;;;6131516;23;20407;-85
2024/03/27 01:00:28;;;;;;;3.17;2.73;;;;;;;;;;6128442;23;20430;-86
2024/03/27 01:03:00;;;;;;;2.87;2.67;;;;;;;;;;6102460;23;20445;-87
2024/03/27 01:05:41;;;;;;;5.30;2.40;;;;;;;;;;6123094;23;20401;-87
2024/03/27 01:08:17;;;;;;;2.70;2.50;;;;;;;;;;6139052;23;20456;-87
2024/03/27 01:11:04;;;;;;;8.37;2.77;;;;;;;;;;6146172;23;20497;-86
2024/03/27 01:13:34;;;;;;;2.57;2.30;;;;;;;;;;6109108;23;21297;-86
2024/03/27 01:16:20;;;;;;;;;;;;;;;;;;;;;
2024/03/27 01:19:16;;;;;;;3.00;2.43;;;;;;;;;;6129861;23;20425;-85
2024/03/27 01:22:10;;;;;;;2.90;2.50;;;;;;;;;;6101241;23;20439;-87
2024/03/27 01:25:10;;;;;;;2.13;1.97;;;;;;;;;;6115822;23;20873;-86
2024/03/27 01:27:57;;;;;;;2.40;2.20;;;;;;;;;;6106047;23;20387;-84
2024/03/27 01:31:03;;;;;;;2.63;2.43;;;;;;;;;;6168904;23;20406;-85
2024/03/27 01:33:35;;;;;;;3.97;2.70;;;;;;;;;;6202101;23;20481;-85
2024/03/27 01:36:14;;;;;;;2.90;2.70;;;;;;;;;;6172882;23;20465;-86
2024/03/27 01:38:47;;;;;;;3.13;2.53;;;;;;;;;;6164505;23;20460;-83
2024/03/27 01:41:27;;;;;;;4.57;2.20;;;;;;;;;;6163787;23;20454;-86
2024/03/27 01:44:29;;;;;;;2.83;2.17;;;;;;;;;;6189070;23;20410;-87
2024/03/27 01:47:11;;;;;;;2.57;2.37;;;;;;;;;;6170669;23;20400;-86
2024/03/27 01:49:53;;;;;;;3.27;2.60;;;;;;;;;;6179222;23;20487;-86
2024/03/27 01:52:20;;;;;;;3.47;2.00;;;;;;;;;;6173352;23;20409;-86
2024/03/27 01:54:51;;;;;;;2.73;2.53;;;;;;;;;;6162658;23;20406;-85
2024/03/27 01:57:30;;;;;;;3.03;2.70;;;;;;;;;;6165470;23;20906;-86
2024/03/27 02:00:14;;;;;;;2.90;2.30;;;;;;;;;;6155427;23;20426;-87
2024/03/27 02:03:31;;;;;;;6.90;2.50;;;;;;;;;;6162220;23;20437;-86
2024/03/27 02:06:14;;;;;;;2.43;2.23;;;;;;;;;;6134342;23;20409;-86
2024/03/27 02:09:07;;;;;;;2.73;2.40;;;;;;;;;;6176320;23;20969;-84
2024/03/27 02:12:11;;;;;;;4.30;2.77;;;;;;;;;;6158002;23;20398;-85
2024/03/27 02:14:41;;;;;;;3.60;2.10;;;;;;;;;;6153225;23;20402;-86
2024/03/27 02:23:47;;;;;;;3.57;2.13;;;;;;;;;;6165145;23;20450;-85
2024/03/27 02:29:50;;;;;;;3.00;2.60;;;;;;;;;;6105266;23;20426;-84
2024/03/27 02:32:38;;;;;;;4.63;3.17;;;;;;;;;;6182193;23;20417;-85
2024/03/27 02:35:06;;;;;;;3.80;2.63;;;;;;;;;;6155608;23;20408;-84
2024/03/27 02:37:57;;;;;;;2.63;2.40;;;;;;;;;;6178740;23;20406;-86
2024/03/27 02:40:38;;;;;;;2.30;2.10;;;;;;;;;;6161631;23;20449;-86
2024/03/27 02:43:37;;;;;;;2.63;2.17;;;;;;;;;;6163418;23;20409;-86
2024/03/27 02:46:06;;;;;;;5.83;2.50;;;;;;;;;;6172695;23;20967;-85
2024/03/27 02:48:52;;;;;;;2.60;2.27;;;;;;;;;;6174354;23;20436;-85
2024/03/27 02:52:12;;;;;;;2.70;2.50;;;;;;;;;;6126374;23;20394;-85
2024/03/27 02:55:12;;;;;;;3.07;2.30;;;;;;;;;;6137278;23;20402;-85
2024/03/27 02:57:47;;;;;;;2.23;2.07;;;;;;;;;;6157243;23;20402;-85
2024/03/27 03:03:26;;;;;;;3.10;2.50;;;;;;;;;;6160649;23;20438;-86
2024/03/27 03:09:10;;;;;;;3.53;2.47;;;;;;;;;;6140748;23;20421;-82
2024/03/27 03:12:14;;;;;;;;;;;;;;;;;;;;;
2024/03/27 03:14:43;;;;;;;2.67;2.20;;;;;;;;;;6160483;23;20406;-81
2024/03/27 03:17:27;;;;;;;2.50;2.30;;;;;;;;;;6157594;23;20418;-83
2024/03/27 03:19:59;;;;;;;3.20;2.60;;;;;;;;;;6156879;23;20782;-85
2024/03/27 03:22:34;;;;;;;4.00;3.13;;;;;;;;;;6159803;23;20445;-85
2024/03/27 03:25:45;;;;;;;2.73;2.50;;;;;;;;;;6112099;23;20401;-82
2024/03/27 03:28:19;;;;;;;3.57;2.60;;;;;;;;;;6161766;23;20394;-86
2024/03/27 03:30:51;;;;;;;2.90;2.70;;;;;;;;;;6178606;23;20390;-85
2024/03/27 03:33:24;;;;;;;12.83;5.40;;;;;;;;;;6180857;23;20488;-85
2024/03/27 03:39:20;;;;;;;4.13;2.90;;;;;;;;;;6194953;23;20516;-88
2024/03/27 03:42:12;;;;;;;4.20;2.83;;;;;;;;;;6204427;23;20751;-86
2024/03/27 03:44:48;;;;;;;9.33;2.77;;;;;;;;;;6208282;23;20460;-85
2024/03/27 03:47:26;;;;;;;2.40;2.20;;;;;;;;;;6186197;23;20485;-85
2024/03/27 03:50:03;;;;;;;2.60;2.40;;;;;;;;;;6210838;23;20496;-85
2024/03/27 03:52:52;;;;;;;3.57;3.03;;;;;;;;;;6203423;23;20484;-84
2024/03/27 03:55:42;;;;;;;3.40;2.77;;;;;;;;;;6210711;23;20468;-85
2024/03/27 03:58:19;;;;;;;2.43;2.23;;;;;;;;;;6179341;23;20449;-84
2024/03/27 04:00:56;;;;;;;4.93;3.20;;;;;;;;;;6211646;23;20452;-86
2024/03/27 04:03:31;;;;;;;4.07;2.67;;;;;;;;;;6185061;23;20445;-86
2024/03/27 04:06:26;;;;;;;4.43;2.90;;;;;;;;;;6179430;23;20484;-86
2024/03/27 04:09:07;;;;;;;5.53;2.60;;;;;;;;;;6180943;23;20413;-87
2024/03/27 04:11:56;;;;;;;2.53;2.23;;;;;;;;;;6150080;23;20443;-86
2024/03/27 04:14:43;;;;;;;5.23;2.10;;;;;;;;;;6118882;23;20418;-87
2024/03/27 04:17:27;;;;;;;2.97;2.70;;;;;;;;;;6103827;23;20475;-85
2024/03/27 04:20:32;;;;;;;;;;;;;;;;;;;;;
2024/03/27 04:23:03;;;;;;;2.90;2.60;;;;;;;;;;6119034;23;20446;-85
2024/03/27 04:25:50;;;;;;;;;;;;;;;;;;;;;
2024/03/27 04:28:27;;;;;;;2.83;2.57;;;;;;;;;;6153690;23;20404;-84
2024/03/27 04:31:14;;;;;;;2.70;2.47;;;;;;;;;;6135558;23;20404;-84
2024/03/27 04:33:52;;;;;;;3.63;2.30;;;;;;;;;;6131933;23;20403;-86
2024/03/27 04:39:49;;;;;;;2.53;2.20;;;;;;;;;;6147667;23;20527;-84
2024/03/27 04:45:13;;;;;;;4.83;2.43;;;;;;;;;;6137687;23;20471;-86
2024/03/27 04:47:45;;;;;;;2.60;2.40;;;;;;;;;;6121696;23;20554;-84
2024/03/27 04:50:44;;;;;;;3.20;2.53;;;;;;;;;;6137367;23;20488;-86
2024/03/27 04:53:19;;;;;;;3.57;2.63;;;;;;;;;;6144344;23;20456;-87
2024/03/27 04:56:08;;;;;;;4.70;2.73;;;;;;;;;;6101212;23;20412;-85
2024/03/27 04:58:40;;;;;;;3.20;2.53;;;;;;;;;;6115454;23;20454;-87
2024/03/27 05:01:20;;;;;;;2.80;2.30;;;;;;;;;;6117585;23;20412;-88
2024/03/27 05:03:50;;;;;;;4.40;2.40;;;;;;;;;;6114669;23;20447;-86
2024/03/27 05:06:19;;;;;;;2.53;2.33;;;;;;;;;;6105204;23;20410;-85
2024/03/27 05:09:34;;;;;;;;;;;;;;;;;;;;;
2024/03/27 05:12:15;;;;;;;3.27;2.70;;;;;;;;;;6128839;23;20404;-84
2024/03/27 05:18:27;;;;;;;3.30;2.50;;;;;;;;;;6202296;23;20425;-84
2024/03/27 05:20:57;;;;;;;4.00;3.10;;;;;;;;;;6155286;23;20477;-85
2024/03/27 05:23:44;;;;;;;3.67;3.33;;;;;;;;;;6119897;23;20449;-85
2024/03/27 05:26:53;;;;;;;4.07;3.27;;;;;;;;;;6102018;23;20454;-86
2024/03/27 05:29:43;;;;;;;3.13;2.60;;;;;;;;;;6176830;23;20496;-86
2024/03/27 05:32:15;;;;;;;5.00;3.40;;;;;;;;;;6206736;23;20480;-87
2024/03/27 05:34:53;;;;;;;3.23;2.93;;;;;;;;;;6196136;23;20414;-86
2024/03/27 05:40:35;;;;;;;3.80;3.50;;;;;;;;;;6205686;23;20477;-88
2024/03/27 05:43:05;;;;;;;3.60;3.30;;;;;;;;;;6179978;23;20447;-85
2024/03/27 05:48:57;;;;;;;3.70;3.10;;;;;;;;;;6229598;23;20399;-84
2024/03/27 05:51:35;;;;;;;3.87;3.27;;;;;;;;;;6174339;23;20405;-86
2024/03/27 05:57:34;;;;;;;;;;;;;;;;;;;;;
2024/03/27 06:00:46;;;;;;;;;;;;;;;;;;;;;
2024/03/27 06:03:44;;;;;;;5.03;2.90;;;;;;;;;;6188386;23;20884;-84
2024/03/27 06:10:10;;;;;;;3.53;3.23;;;;;;;;;;6227003;23;20480;-85
2024/03/27 06:13:12;;;;;;;4.67;3.27;;;;;;;;;;6204385;23;20412;-88
2024/03/27 06:15:38;;;;;;;3.37;3.07;;;;;;;;;;6170468;23;20455;-85
2024/03/27 06:24:27;;;;;;;;;;;;;;;;;;;;;
2024/03/27 06:27:04;;;;;;;3.70;3.40;;;;;;;;;;6206681;23;20473;-85
2024/03/27 06:30:01;;;;;;;3.70;3.40;;;;;;;;;;6177167;23;20432;-86
2024/03/27 06:32:48;;;;;;;7.80;4.20;;;;;;;;;;6195163;23;20392;-86
2024/03/27 06:35:27;;;;;;;6.87;4.10;;;;;;;;;;6164416;23;20411;-84
2024/03/27 06:37:59;;;;;;;3.60;3.30;;;;;;;;;;6165884;23;20401;-85
2024/03/27 06:41:16;;;;;;;4.30;3.57;;;;;;;;;;6064584;23;20396;-86
2024/03/27 06:44:27;;;;;;;5.43;4.40;;;;;;;;;;5977952;23;20467;-85
2024/03/27 06:47:26;;;;;;;5.00;4.10;;;;;;;;;;5962661;23;20484;-87
2024/03/27 06:50:00;;;;;;;5.00;3.80;;;;;;;;;;5957047;23;21008;-84
2024/03/27 06:52:46;;;;;;;7.07;4.30;;;;;;;;;;5957555;23;20414;-86
2024/03/27 06:55:15;;;;;;;6.90;4.30;;;;;;;;;;5958437;24;20434;-86
2024/03/27 06:57:51;;;;;;;5.03;3.80;;;;;;;;;;5928686;24;20425;-85
2024/03/27 07:00:51;;;;;;;3.67;3.30;;;;;;;;;;5927123;23;20409;-84
2024/03/27 07:03:43;;;;;;;;;;;;;;;;;;;;;
2024/03/27 07:06:25;;;;;;;4.50;4.00;;;;;;;;;;5957367;24;20418;-88
2024/03/27 07:09:25;;;;;;;7.40;3.80;;;;;;;;;;5937380;24;20420;-86
2024/03/27 07:12:08;;;;;;;;;;;;;;;;;;;;;
2024/03/27 07:15:08;;;;;;;8.10;3.40;;;;;;;;;;6063189;23;20649;-86
2024/03/27 07:17:55;;;;;;;4.70;3.30;;;;;;;;;;6151749;23;20405;-87
2024/03/27 07:20:29;;;;;;;4.90;3.90;;;;;;;;;;6189377;23;20418;-85
2024/03/27 07:23:16;;;;;;;5.80;4.30;;;;;;;;;;6160762;23;20450;-88
2024/03/27 07:26:12;;;;;;;3.37;3.07;;;;;;;;;;6182643;23;20392;-87
2024/03/27 07:29:15;;;;;;;6.63;4.00;;;;;;;;;;6160795;23;20436;-87
2024/03/27 07:32:05;;;;;;;;;;;;;;;;;;;;;
2024/03/27 07:34:51;;;;;;;4.20;3.87;;;;;;;;;;6201160;23;20393;-87
2024/03/27 07:37:48;;;;;;;5.77;3.53;;;;;;;;;;6138490;23;20389;-87
2024/03/27 07:40:18;;;;;;;4.33;3.40;;;;;;;;;;6190732;23;20425;-86
2024/03/27 07:43:25;;;;;;;4.67;3.40;;;;;;;;;;6148641;23;20476;-85
2024/03/27 07:46:15;;;;;;;4.93;4.07;;;;;;;;;;6163779;23;20397;-86
2024/03/27 07:49:03;;;;;;;3.87;3.00;;;;;;;;;;6173044;23;20444;-84
2024/03/27 07:51:42;;;;;;;5.33;2.97;;;;;;;;;;6168261;23;20392;-86
2024/03/27 07:54:26;;;;;;;5.40;3.10;;;;;;;;;;6192035;23;20393;-86
2024/03/27 07:57:17;;;;;;;2.30;2.10;;;;;;;;;;6172535;23;20467;-85
2024/03/27 08:00:16;;;;;;;6.17;4.67;;;;;;;;;;6166697;23;20425;-84
2024/03/27 08:02:52;;;;;;;1.80;1.70;;;;;;;;;;6168686;23;20448;-85
2024/03/27 08:05:22;;;;;;;2.60;2.03;;;;;;;;;;6166911;23;20401;-85
2024/03/27 08:11:37;;;;;;;1.40;1.30;;;;;;;;;;6098994;23;20396;-87
2024/03/27 08:14:14;;;;;;;1.20;1.10;;;;;;;;;;6073972;23;20405;-86
2024/03/27 08:17:10;;;;;;;1.47;1.37;;;;;;;;;;6062116;23;20393;-86
2024/03/27 08:19:50;;;;;;;3.70;1.30;;;;;;;;;;6069478;23;20428;-86
2024/03/27 08:22:20;;;;;;;1.20;1.10;;;;;;;;;;6044625;23;20464;-88
2024/03/27 08:24:56;;;;;;;1.50;1.40;;;;;;;;;;6085448;23;20405;-84
2024/03/27 08:27:25;;;;;;;2.33;1.30;;;;;;;;;;6046266;23;20415;-86
2024/03/27 08:30:00;;;;;;;1.00;1.00;;;;;;;;;;6047379;23;20425;-85
2024/03/27 08:35:56;;;;;;;1.00;0.90;;;;;;;;;;6097755;23;20395;-86
2024/03/27 08:38:28;;;;;;;1.00;1.00;;;;;;;;;;6048454;23;20447;-84
2024/03/27 08:41:09;;;;;;;0.80;0.80;;;;;;;;;;6050352;23;20412;-86
2024/03/27 08:47:30;;;;;;;1.10;1.00;;;;;;;;;;6078143;23;20409;-85
2024/03/27 08:49:57;;;;;;;2.90;1.07;;;;;;;;;;6168511;23;20425;-87
2024/03/27 08:52:38;;;;;;;1.17;1.07;;;;;;;;;;6143205;23;20401;-84
2024/03/27 08:58:10;;;;;;;1.77;1.27;;;;;;;;;;6203281;23;20389;-86
2024/03/27 09:00:43;;;;;;;1.23;1.13;;;;;;;;;;6186082;23;20456;-84
2024/03/27 09:07:26;;;;;;;;;;;;;;;;;;;;;
2024/03/27 09:10:13;;;;;;;1.00;0.97;;;;;;;;;;6152126;23;20531;-88
2024/03/27 09:13:05;;;;;;;1.80;1.30;;;;;;;;;;6168786;23;20423;-86
2024/03/27 09:16:05;;;;;;;2.87;1.70;;;;;;;;;;6201271;23;20405;-86
2024/03/27 09:19:17;;;;;;;2.40;1.30;;;;;;;;;;6178112;23;20428;-83
2024/03/27 09:22:24;;;;;;;1.90;1.37;;;;;;;;;;6190328;23;20456;-88
2024/03/27 09:25:57;;;;;;;;;;;;;;;;;;;;;
2024/03/27 09:28:55;;;;;;;2.00;1.07;;;;;;;;;;6132640;23;20411;-86
2024/03/27 09:32:00;;;;;;;0.70;0.70;;;;;;;;;;6200553;23;20385;-83
2024/03/27 09:35:19;;;;;;;1.33;1.23;;;;;;;;;;6204826;23;20397;-84
2024/03/27 09:38:16;;;;;;;1.40;0.83;;;;;;;;;;6170971;23;20508;-87
2024/03/27 09:41:00;;;;;;;1.63;0.90;;;;;;;;;;6173735;23;20391;-89
2024/03/27 09:57:42;;;;;;;2.17;1.97;;;;;;;;;;6199859;23;20445;-85
2024/03/27 10:03:09;;;;;;;1.50;1.40;;;;;;;;;;6178720;23;20435;-89
2024/03/27 10:16:55;;;;;;;2.87;2.40;;;;;;;;;;6190734;23;20461;-85
2024/03/27 10:20:00;;;;;;;5.10;3.90;;;;;;;;;;6139948;23;21188;-85
2024/03/27 10:23:22;;;;;;;;;;;;;;;;;;;;;
2024/03/27 10:26:23;;;;;;;1.50;1.40;;;;;;;;;;6199458;23;20454;-88
2024/03/27 10:36:06;;;;;;;;;;;;;;;;;;;;;
2024/03/27 10:46:12;;;;;;;2.97;2.07;;;;;;;;;;5924564;24;20465;-84
2024/03/27 10:48:57;;;;;;;1.90;1.80;;;;;;;;;;5906544;24;20444;-82
2024/03/27 10:52:02;;;;;;;;;;;;;;;;;;;;;
2024/03/27 10:58:05;;;;;;;2.63;2.30;;;;;;;;;;6035634;23;20485;-84
2024/03/27 11:01:12;;;;;;;;;;;;;;;;;;;;;
2024/03/27 11:04:30;;;;;;;2.83;2.03;;;;;;;;;;6026380;23;20439;-84
2024/03/27 11:07:21;;;;;;;;;;;;;;;;;;;;;
2024/03/27 11:17:10;;;;;;;;;;;;;;;;;;;;;
2024/03/27 11:27:16;;;;;;;2.37;2.10;;;;;;;;;;6234199;23;20449;-85
2024/03/27 11:30:08;;;;;;;2.30;2.10;;;;;;;;;;6039815;23;20490;-85
2024/03/27 11:32:55;;;;;;;2.40;2.20;;;;;;;;;;6034465;23;20636;-84
2024/03/27 11:36:10;;;;;;;1.90;1.70;;;;;;;;;;6209541;23;20476;-85
2024/03/27 11:39:39;;;;;;;;;;;;;;;;;;;;;
2024/03/27 11:42:36;;;;;;;3.40;2.17;;;;;;;;;;6204734;23;20451;-86
2024/03/27 11:45:38;;;;;;;2.20;2.00;;;;;;;;;;6154982;23;20397;-85
2024/03/27 11:48:19;;;;;;;1.90;1.37;;;;;;;;;;6199791;23;20393;-87
2024/03/27 11:51:25;;;;;;;1.43;1.33;;;;;;;;;;6180978;23;20499;-88
2024/03/27 11:54:01;;;;;;;1.53;1.37;;;;;;;;;;6166939;23;20386;-86
2024/03/27 12:03:59;;;;;;;1.53;1.07;;;;;;;;;;6000776;23;20454;-86
2024/03/27 12:07:05;;;;;;;1.30;1.20;;;;;;;;;;6009896;23;20417;-86
2024/03/27 12:09:48;;;;;;;0.87;0.87;;;;;;;;;;6092736;23;20448;-85
2024/03/27 12:12:21;;;;;;;1.53;1.30;;;;;;;;;;6174143;23;20403;-85
2024/03/27 12:15:16;;;;;;;1.30;1.20;;;;;;;;;;6176692;23;20414;-83
2024/03/27 12:17:49;;;;;;;1.67;1.47;;;;;;;;;;6149623;23;20395;-85
2024/03/27 12:20:30;;;;;;;1.27;1.17;;;;;;;;;;6149238;23;20417;-87
2024/03/27 12:23:01;;;;;;;1.50;1.40;;;;;;;;;;6169009;23;20446;-86
2024/03/27 12:25:38;;;;;;;1.27;1.13;;;;;;;;;;6161176;23;20469;-86
2024/03/27 12:31:24;;;;;;;2.37;1.50;;;;;;;;;;6197908;23;20939;-87
2024/03/27 12:33:53;;;;;;;1.50;1.40;;;;;;;;;;6158725;23;20404;-87
2024/03/27 12:36:33;;;;;;;1.67;1.27;;;;;;;;;;6119961;23;20510;-83
2024/03/27 12:39:32;;;;;;;1.30;1.20;;;;;;;;;;6130303;23;20492;-84
2024/03/27 12:42:41;;;;;;;4.67;4.23;;;;;;;;;;6128793;23;20466;-86
2024/03/27 12:52:14;;;;;;;3.17;2.20;;;;;;;;;;6081513;23;20435;-89
2024/03/27 13:08:11;;;;;;;1.43;1.30;;;;;;;;;;6207503;22;20448;-85
2024/03/27 13:14:08;;;;;;;2.03;1.70;;;;;;;;;;6197798;23;20389;-85
2024/03/27 13:16:42;;;;;;;1.97;1.30;;;;;;;;;;6207320;23;20397;-86
2024/03/27 13:19:18;;;;;;;2.67;2.07;;;;;;;;;;6180255;23;20733;-84
2024/03/27 13:21:51;;;;;;;3.30;2.20;;;;;;;;;;6210283;23;20472;-87
2024/03/27 13:24:43;;;;;;;1.53;1.43;;;;;;;;;;6108486;22;20454;-87
2024/03/27 13:27:22;;;;;;;2.10;1.90;;;;;;;;;;6180798;23;20437;-89
2024/03/27 13:32:39;;;;;;;1.40;1.30;;;;;;;;;;6217941;22;20440;-88
2024/03/27 13:37:55;;;;;;;1.47;1.30;;;;;;;;;;6176802;23;20413;-89
2024/03/27 13:41:00;;;;;;;1.73;1.00;;;;;;;;;;6169531;22;20440;-87
2024/03/27 13:46:31;;;;;;;3.77;1.20;;;;;;;;;;6158482;23;20517;-87
2024/03/27 13:52:05;;;;;;;1.27;0.70;;;;;;;;;;6187808;23;20413;-88
2024/03/27 13:54:41;;;;;;;1.00;0.90;;;;;;;;;;6197192;23;20474;-87
2024/03/27 13:57:29;;;;;;;2.20;1.80;;;;;;;;;;6200240;23;20525;-86
2024/03/27 14:00:03;;;;;;;3.23;1.43;;;;;;;;;;6173714;23;20426;-87
2024/03/27 14:02:50;;;;;;;1.57;1.13;;;;;;;;;;6205000;23;20439;-87
2024/03/27 14:08:48;;;;;;;1.00;0.90;;;;;;;;;;6207150;23;20403;-87
2024/03/27 14:11:31;;;;;;;0.83;0.83;;;;;;;;;;6184652;23;20399;-86
2024/03/27 14:14:08;;;;;;;1.13;1.00;;;;;;;;;;6173284;23;20466;-86
2024/03/27 14:16:54;;;;;;;1.37;0.90;;;;;;;;;;6173609;23;20446;-86
2024/03/27 14:19:24;;;;;;;2.20;0.90;;;;;;;;;;6168004;23;20422;-86
2024/03/27 14:22:06;;;;;;;3.23;1.20;;;;;;;;;;6199206;23;20432;-86
2024/03/27 14:24:33;;;;;;;2.50;1.63;;;;;;;;;;6174783;23;20405;-85
2024/03/27 14:27:03;;;;;;;1.20;1.10;;;;;;;;;;6171938;23;20401;-86
2024/03/27 14:29:56;;;;;;;1.60;1.50;;;;;;;;;;6174361;23;20425;-85
2024/03/27 14:32:43;;;;;;;1.57;1.03;;;;;;;;;;6169557;23;20401;-86
2024/03/27 14:35:12;;;;;;;1.00;0.93;;;;;;;;;;6198838;23;20409;-86
2024/03/27 14:37:42;;;;;;;2.43;1.30;;;;;;;;;;6176920;23;20404;-85
2024/03/27 14:40:23;;;;;;;1.20;1.20;;;;;;;;;;6174515;23;20421;-84
2024/03/27 14:46:00;;;;;;;0.83;0.83;;;;;;;;;;6200751;23;20401;-88
2024/03/27 14:48:40;;;;;;;1.23;1.10;;;;;;;;;;6174127;23;20460;-87
2024/03/27 14:51:25;;;;;;;1.23;1.13;;;;;;;;;;6196903;23;20411;-86
2024/03/27 14:53:57;;;;;;;1.10;0.80;;;;;;;;;;6176004;23;20411;-88
2024/03/27 14:56:28;;;;;;;4.53;3.70;;;;;;;;;;6183119;23;20404;-87
2024/03/27 14:59:18;;;;;;;2.40;1.20;;;;;;;;;;6177170;23;20470;-87
2024/03/27 15:01:55;;;;;;;1.40;0.97;;;;;;;;;;6170328;23;20402;-86
2024/03/27 15:04:49;;;;;;;0.97;0.97;;;;;;;;;;6207612;23;20472;-87
2024/03/27 15:07:41;;;;;;;0.90;0.80;;;;;;;;;;6177838;23;20410;-87
2024/03/27 15:10:33;;;;;;;1.63;1.37;;;;;;;;;;6206910;23;20409;-87
2024/03/27 15:16:37;;;;;;;1.20;0.80;;;;;;;;;;6126997;23;21071;-87
2024/03/27 15:22:12;;;;;;;2.80;1.47;;;;;;;;;;6206331;23;20397;-86
2024/03/27 15:24:51;;;;;;;0.80;0.80;;;;;;;;;;6210297;23;20381;-87
2024/03/27 15:27:28;;;;;;;1.37;1.00;;;;;;;;;;6208392;23;20396;-87
2024/03/27 15:30:07;;;;;;;1.37;0.90;;;;;;;;;;6177208;23;20462;-90
2024/03/27 15:32:46;;;;;;;1.03;0.93;;;;;;;;;;6114229;23;20400;-86
2024/03/27 15:36:00;;;;;;;1.30;0.87;;;;;;;;;;6170700;23;20390;-88
2024/03/27 15:38:49;;;;;;;1.27;0.70;;;;;;;;;;6166168;23;20431;-86
2024/03/27 15:41:26;;;;;;;0.97;0.87;;;;;;;;;;6142732;23;20840;-86
2024/03/27 15:47:27;;;;;;;1.10;1.00;;;;;;;;;;6170694;23;20374;-87
2024/03/27 15:50:03;;;;;;;2.17;1.30;;;;;;;;;;6146635;23;20422;-87
2024/03/27 15:53:08;;;;;;;2.00;1.50;;;;;;;;;;6171182;23;20411;-86
2024/03/27 15:55:58;;;;;;;3.67;1.90;;;;;;;;;;6151936;23;20411;-88
2024/03/27 15:58:31;;;;;;;1.27;1.00;;;;;;;;;;6178162;23;20478;-88
2024/03/27 16:01:15;;;;;;;1.80;1.67;;;;;;;;;;6159226;23;20461;-87
2024/03/27 16:04:01;;;;;;;1.40;1.30;;;;;;;;;;6125805;23;20501;-88
2024/03/27 16:06:53;;;;;;;1.40;1.30;;;;;;;;;;6139015;23;20469;-85
2024/03/27 16:09:49;;;;;;;2.10;1.40;;;;;;;;;;6174383;23;20458;-87
2024/03/27 16:12:51;;;;;;;;;;;;;;;;;;;;;
2024/03/27 16:15:47;;;;;;;1.50;1.40;;;;;;;;;;6129651;23;20403;-88
2024/03/27 16:18:17;;;;;;;1.20;1.20;;;;;;;;;;6124032;22;20446;-87
2024/03/27 16:20:50;;;;;;;1.67;1.30;;;;;;;;;;6179881;23;20514;-86
2024/03/27 16:23:34;;;;;;;1.20;1.20;;;;;;;;;;6201922;23;20441;-85
2024/03/27 16:26:07;;;;;;;1.10;1.00;;;;;;;;;;6175009;23;20395;-85
2024/03/27 16:28:47;;;;;;;1.23;1.10;;;;;;;;;;6182486;23;20433;-85
2024/03/27 16:31:20;;;;;;;3.73;2.17;;;;;;;;;;6118869;23;20422;-86
2024/03/27 16:33:53;;;;;;;1.47;1.37;;;;;;;;;;6137788;23;20414;-87
2024/03/27 16:36:37;;;;;;;1.70;1.60;;;;;;;;;;6117627;23;20415;-86
2024/03/27 16:39:25;;;;;;;1.50;1.40;;;;;;;;;;6144736;23;20429;-88
2024/03/27 16:41:56;;;;;;;2.07;1.97;;;;;;;;;;6128159;23;20454;-87
2024/03/27 16:44:48;;;;;;;1.30;1.20;;;;;;;;;;6155502;23;20383;-87
2024/03/27 16:47:18;;;;;;;1.50;1.40;;;;;;;;;;6116161;23;20408;-86
2024/03/27 16:49:50;;;;;;;2.30;1.43;;;;;;;;;;6118459;23;20454;-88
2024/03/27 16:52:42;;;;;;;1.30;1.30;;;;;;;;;;6119140;23;20465;-87
2024/03/27 16:55:25;;;;;;;2.93;2.60;;;;;;;;;;6121312;23;20412;-89
2024/03/27 16:57:56;;;;;;;1.73;1.63;;;;;;;;;;6090543;23;20396;-87
2024/03/27 17:00:25;;;;;;;1.60;1.50;;;;;;;;;;6089735;23;20427;-87
2024/03/27 17:02:53;;;;;;;2.60;2.07;;;;;;;;;;6087336;23;20439;-85
2024/03/27 17:05:27;;;;;;;2.00;1.60;;;;;;;;;;6089018;23;20404;-87
2024/03/27 17:08:16;;;;;;;3.97;2.10;;;;;;;;;;6110592;23;20414;-86
2024/03/27 17:11:04;;;;;;;3.30;1.70;;;;;;;;;;6090921;23;20466;-86
2024/03/27 17:24:45;;;;;;;3.60;1.97;;;;;;;;;;6183279;23;20446;-88
2024/03/27 17:27:25;;;;;;;1.90;1.60;;;;;;;;;;6153888;23;20409;-86
2024/03/27 17:30:15;;;;;;;2.80;2.00;;;;;;;;;;6130659;23;20402;-86
2024/03/27 17:32:47;;;;;;;1.93;1.63;;;;;;;;;;6147092;23;20397;-86
2024/03/27 17:35:31;;;;;;;1.80;1.70;;;;;;;;;;6172960;23;20398;-86
2024/03/27 17:38:00;;;;;;;3.63;1.67;;;;;;;;;;6147000;23;20438;-87
2024/03/27 17:40:31;;;;;;;2.13;1.93;;;;;;;;;;6170989;23;20440;-86
2024/03/27 17:43:02;;;;;;;2.27;2.07;;;;;;;;;;6148618;23;20448;-87
2024/03/27 17:45:37;;;;;;;1.97;1.87;;;;;;;;;;6150869;23;20425;-85
2024/03/27 17:48:18;;;;;;;2.93;2.63;;;;;;;;;;6127273;23;20810;-87
2024/03/27 17:54:01;;;;;;;2.47;2.27;;;;;;;;;;6172251;23;20429;-87
2024/03/27 17:56:34;;;;;;;2.30;2.10;;;;;;;;;;6170609;23;20402;-87
2024/03/27 17:59:00;;;;;;;1.90;1.80;;;;;;;;;;6148157;23;20422;-86
2024/03/27 18:04:33;;;;;;;1.90;1.80;;;;;;;;;;6163339;23;20398;-84
2024/03/27 18:07:08;;;;;;;2.40;2.10;;;;;;;;;;6147647;23;20410;-86
2024/03/27 18:10:08;;;;;;;2.10;2.00;;;;;;;;;;6173474;23;20456;-87
2024/03/27 18:16:17;;;;;;;1.90;1.80;;;;;;;;;;6169245;23;20498;-89
2024/03/27 18:19:05;;;;;;;4.93;1.80;;;;;;;;;;6134882;23;20469;-85
2024/03/27 18:21:43;;;;;;;1.73;1.63;;;;;;;;;;6128216;23;20577;-87
2024/03/27 18:24:21;;;;;;;1.67;1.57;;;;;;;;;;6129626;23;20471;-88
2024/03/27 18:27:05;;;;;;;2.93;2.00;;;;;;;;;;6154016;23;20400;-88
2024/03/27 18:29:55;;;;;;;1.90;1.80;;;;;;;;;;6127825;23;20486;-90
2024/03/27 18:32:56;;;;;;;1.97;1.83;;;;;;;;;;6122539;23;20387;-89
2024/03/27 18:35:42;;;;;;;1.93;1.83;;;;;;;;;;6121699;23;20739;-87
2024/03/27 18:38:33;;;;;;;;;;;;;;;;;;;;;
2024/03/27 18:41:21;;;;;;;1.90;1.80;;;;;;;;;;6136618;23;20403;-87
2024/03/27 18:44:10;;;;;;;2.57;2.37;;;;;;;;;;6160851;23;20489;-88
2024/03/27 18:46:45;;;;;;;3.40;2.00;;;;;;;;;;6143645;23;20403;-86
2024/03/27 18:49:39;;;;;;;2.33;2.17;;;;;;;;;;6144065;23;20414;-88
2024/03/27 18:52:08;;;;;;;1.87;1.73;;;;;;;;;;6122091;23;20624;-85
2024/03/27 18:57:32;;;;;;;2.53;2.20;;;;;;;;;;6198411;23;20440;-89
2024/03/27 19:00:19;;;;;;;4.00;2.20;;;;;;;;;;6121217;23;20437;-88
2024/03/27 19:02:49;;;;;;;2.33;2.13;;;;;;;;;;6139392;23;20442;-86
2024/03/27 19:05:29;;;;;;;2.67;2.47;;;;;;;;;;6172076;23;20425;-87
2024/03/27 19:08:03;;;;;;;3.00;2.80;;;;;;;;;;6142148;23;20421;-85
2024/03/27 19:10:34;;;;;;;2.37;2.17;;;;;;;;;;6145967;23;20444;-85
2024/03/27 19:13:05;;;;;;;3.27;2.23;;;;;;;;;;6158930;23;20457;-89
2024/03/27 19:15:50;;;;;;;3.30;2.30;;;;;;;;;;6209941;23;20392;-86
2024/03/27 19:18:17;;;;;;;2.40;2.20;;;;;;;;;;6158953;23;20463;-87
2024/03/27 19:20:52;;;;;;;2.07;1.97;;;;;;;;;;6182737;23;20477;-89
2024/03/27 19:23:32;;;;;;;2.73;2.53;;;;;;;;;;6159493;23;20438;-88
2024/03/27 19:26:04;;;;;;;2.40;2.20;;;;;;;;;;6153497;23;20421;-87
2024/03/27 19:28:45;;;;;;;2.37;2.17;;;;;;;;;;6146975;23;20426;-86
2024/03/27 19:31:20;;;;;;;2.23;2.13;;;;;;;;;;6128935;23;20737;-89
2024/03/27 19:34:04;;;;;;;2.63;2.43;;;;;;;;;;6143251;23;20455;-89
2024/03/27 19:36:35;;;;;;;2.20;2.10;;;;;;;;;;6115107;23;20429;-88
2024/03/27 19:39:10;;;;;;;2.17;1.97;;;;;;;;;;6119432;23;20434;-89
2024/03/27 19:41:50;;;;;;;2.80;2.47;;;;;;;;;;6122710;23;20694;-87
2024/03/27 19:44:48;;;;;;;2.77;2.50;;;;;;;;;;6124624;23;20398;-88
2024/03/27 19:47:42;;;;;;;3.03;2.83;;;;;;;;;;6125393;23;20406;-86
2024/03/27 19:50:23;;;;;;;2.80;2.60;;;;;;;;;;6123300;23;20433;-88
2024/03/27 19:55:45;;;;;;;2.80;2.60;;;;;;;;;;6095327;23;20392;-87
2024/03/27 19:58:33;;;;;;;3.17;2.97;;;;;;;;;;6088309;23;20388;-88
2024/03/27 20:01:20;;;;;;;5.50;3.80;;;;;;;;;;6085966;23;20426;-86
2024/03/27 20:04:06;;;;;;;2.50;2.30;;;;;;;;;;6108166;23;20457;-86
2024/03/27 20:06:48;;;;;;;3.00;2.77;;;;;;;;;;6064852;23;20409;-85
2024/03/27 20:09:32;;;;;;;2.90;2.33;;;;;;;;;;6065298;23;20424;-86
2024/03/27 20:12:17;;;;;;;2.67;2.47;;;;;;;;;;6065254;23;20409;-87
2024/03/27 20:15:14;;;;;;;2.50;2.30;;;;;;;;;;6092743;23;20371;-87
2024/03/27 20:18:18;;;;;;;3.37;2.80;;;;;;;;;;6096476;23;20531;-88
2024/03/27 20:21:10;;;;;;;3.13;2.90;;;;;;;;;;6091800;23;20456;-88
2024/03/27 20:23:52;;;;;;;2.87;2.63;;;;;;;;;;6063742;23;20471;-89